Time;durP1;ratioP1;P1;durP2;ratioP2;P2;SDS_P1;SDS_P2;PMS_P1;PMS_P2;Temp;Humidity;BMP_temperature;BMP_pressure;BME280_temperature;BME280_humidity;BME280_pressure;Samples;Min_cycle;Max_cycle;Signal;HPM_P1;HPM_P2
2021/05/20 00:00:52;;;;;;;0.70;0.60;;;8.10;99.90;;;8.65;100.00;-20917.53;5100717;27;20849;-81
2021/05/20 00:03:19;;;;;;;0.70;0.60;;;8.20;99.90;;;8.66;100.00;-20917.97;5132542;27;21013;-81
2021/05/20 00:05:47;;;;;;;0.70;0.60;;;8.10;99.90;;;8.69;100.00;-20918.66;5118507;27;20459;-81
2021/05/20 00:08:15;;;;;;;0.70;0.60;;;8.20;99.90;;;8.75;100.00;-20920.31;5118957;27;20452;-81
2021/05/20 00:10:43;;;;;;;0.70;0.60;;;8.20;99.90;;;8.83;100.00;-20922.53;5135012;27;20540;-82
2021/05/20 00:13:10;;;;;;;0.70;0.60;;;8.30;99.90;;;8.89;100.00;-20924.06;5136243;27;20418;-80
2021/05/20 00:15:39;;;;;;;0.70;0.60;;;8.40;99.90;;;8.91;100.00;-20924.75;5136149;27;20756;-82
2021/05/20 00:18:06;;;;;;;0.70;0.60;;;8.40;99.90;;;8.90;100.00;-20924.34;5133691;27;20995;-80
2021/05/20 00:20:35;;;;;;;0.70;0.60;;;8.40;99.90;;;8.87;100.00;-20923.50;5117771;27;20446;-80
2021/05/20 00:23:03;;;;;;;0.70;0.60;;;8.30;99.90;;;8.84;100.00;-20922.69;5136994;27;20499;-78
2021/05/20 00:25:31;;;;;;;0.70;0.57;;;8.30;99.90;;;8.81;100.00;-20921.84;5136685;27;20411;-80
2021/05/20 00:27:58;;;;;;;0.70;0.60;;;8.30;99.90;;;8.75;100.00;-20920.19;5134347;27;20505;-80
2021/05/20 00:30:26;;;;;;;0.70;0.60;;;8.20;99.90;;;8.76;100.00;-20920.59;5118961;27;20452;-80
2021/05/20 00:32:53;;;;;;;0.70;0.60;;;8.20;99.90;;;8.75;100.00;-20920.19;5134598;27;20438;-80
2021/05/20 00:35:23;;;;;;;0.70;0.60;;;8.20;99.90;;;8.74;100.00;-20919.91;5135668;27;20909;-80
2021/05/20 00:37:51;;;;;;;0.70;0.60;;;8.20;99.90;;;8.77;100.00;-20920.75;5116995;27;20836;-79
2021/05/20 00:40:19;;;;;;;0.73;0.70;;;8.20;99.90;;;8.83;100.00;-20922.41;5134820;27;20489;-80
2021/05/20 00:42:48;;;;;;;0.70;0.60;;;8.20;99.90;;;8.83;100.00;-20922.53;5135185;27;20432;-80
2021/05/20 00:45:16;;;;;;;0.70;0.60;;;8.30;99.90;;;8.81;100.00;-20921.97;5136816;27;20435;-80
2021/05/20 00:47:44;;;;;;;0.70;0.57;;;8.20;99.90;;;8.81;100.00;-20921.84;5134431;27;20989;-80
2021/05/20 00:50:12;;;;;;;0.70;0.60;;;8.20;99.90;;;8.77;100.00;-20920.75;5120840;27;20437;-80
2021/05/20 00:52:41;;;;;;;0.70;0.60;;;8.20;99.90;;;8.78;100.00;-20921.00;5120132;27;20428;-80
2021/05/20 00:55:12;;;;;;;0.70;0.60;;;8.20;99.90;;;8.78;100.00;-20921.00;5138434;27;20496;-82
2021/05/20 00:57:42;;;;;;;0.70;0.60;;;8.20;99.90;;;8.79;100.00;-20921.28;5134084;27;20437;-80
2021/05/20 01:00:12;;;;;;;0.70;0.60;;;8.30;99.90;;;8.85;100.00;-20923.09;5118329;28;20821;-80
2021/05/20 01:02:41;;;;;;;0.70;0.60;;;8.40;99.90;;;8.87;100.00;-20923.66;5136139;27;20437;-82
2021/05/20 01:05:12;;;;;;;0.70;0.57;;;8.30;99.90;;;8.84;100.00;-20922.81;5138139;27;20442;-79
2021/05/20 01:07:40;;;;;;;0.67;0.50;;;8.30;99.90;;;8.81;100.00;-20921.84;5135340;27;20461;-81
2021/05/20 01:10:11;;;;;;;0.70;0.60;;;8.30;99.90;;;8.78;100.00;-20921.00;5135027;27;20422;-81
2021/05/20 01:12:41;;;;;;;0.70;0.60;;;8.20;99.90;;;8.74;100.00;-20919.91;5135553;27;20594;-81
2021/05/20 01:15:22;;;;;;;0.70;0.57;;;8.20;99.90;;;8.67;100.00;-20918.09;5136828;27;20930;-82
2021/05/20 01:17:52;;;;;;;0.70;0.50;;;8.10;99.90;;;8.67;100.00;-20918.25;5115479;27;20498;-81
2021/05/20 01:20:24;;;;;;;0.70;0.60;;;8.10;99.90;;;8.68;100.00;-20918.50;5133151;27;20482;-82
2021/05/20 01:22:52;;;;;;;0.70;0.60;;;8.10;99.90;;;8.68;100.00;-20918.38;5117590;28;20515;-80
2021/05/20 01:25:20;;;;;;;0.70;0.60;;;8.10;99.90;;;8.68;100.00;-20918.50;5108799;27;20452;-82
2021/05/20 01:27:49;;;;;;;0.70;0.50;;;8.10;99.90;;;8.80;100.00;-20921.72;5137435;27;20459;-79
2021/05/20 01:30:18;;;;;;;0.70;0.60;;;8.20;99.90;;;8.91;100.00;-20924.75;5137278;27;20407;-80
2021/05/20 01:32:46;;;;;;;0.70;0.60;;;8.30;99.90;;;8.99;100.00;-20926.84;5117715;27;20475;-81
2021/05/20 01:35:14;;;;;;;0.67;0.60;;;8.40;99.90;;;8.99;100.00;-20926.84;5136481;27;20964;-80
2021/05/20 01:37:43;;;;;;;0.70;0.53;;;8.40;99.90;;;9.04;100.00;-20928.09;5135730;27;20458;-80
2021/05/20 01:40:13;;;;;;;0.70;0.60;;;8.40;99.90;;;9.07;100.00;-20928.91;5118958;27;20450;-79
2021/05/20 01:42:42;;;;;;;0.70;0.50;;;8.40;99.90;;;9.09;100.00;-20929.47;5131750;27;20962;-80
2021/05/20 01:45:10;;;;;;;0.80;0.70;;;8.50;99.90;;;9.07;100.00;-20929.06;5135878;27;20439;-82
2021/05/20 01:47:38;;;;;;;0.70;0.60;;;8.50;99.90;;;9.02;100.00;-20927.66;5129884;27;20548;-78
2021/05/20 01:50:06;;;;;;;0.70;0.60;;;8.40;99.90;;;8.90;100.00;-20924.34;5117005;28;20428;-79
2021/05/20 01:52:34;;;;;;;0.70;0.60;;;8.40;99.90;;;8.83;100.00;-20922.41;5116914;28;20435;-81
2021/05/20 01:55:03;;;;;;;0.70;0.60;;;8.30;99.90;;;8.77;100.00;-20920.75;5116810;28;20427;-80
2021/05/20 01:57:31;;;;;;;0.70;0.60;;;8.20;99.90;;;8.75;100.00;-20920.31;5132041;27;20506;-80
2021/05/20 02:00:01;;;;;;;0.70;0.60;;;8.20;99.90;;;8.72;100.00;-20919.50;5120649;27;20448;-80
2021/05/20 02:02:31;;;;;;;0.70;0.60;;;8.10;99.90;;;8.66;100.00;-20917.81;5136891;27;20423;-80
2021/05/20 02:04:58;;;;;;;0.70;0.60;;;8.10;99.90;;;8.62;100.00;-20916.84;5136543;27;20545;-80
2021/05/20 02:07:26;;;;;;;0.70;0.50;;;8.10;99.90;;;8.59;100.00;-20915.88;5136438;27;20790;-80
2021/05/20 02:09:53;;;;;;;0.70;0.50;;;8.10;99.90;;;8.51;100.00;-20913.66;5099622;28;20457;-80
2021/05/20 02:12:22;;;;;;;0.70;0.60;;;8.00;99.90;;;8.58;100.00;-20915.59;5116722;28;20477;-79
2021/05/20 02:14:52;;;;;;;0.70;0.60;;;8.00;99.90;;;8.61;100.00;-20916.44;5100292;28;20463;-80
2021/05/20 02:17:19;;;;;;;0.70;0.60;;;8.00;99.90;;;8.65;100.00;-20917.69;5115886;28;20954;-79
2021/05/20 02:19:47;;;;;;;0.70;0.57;;;8.00;99.90;;;8.72;100.00;-20919.50;5105705;27;20453;-80
2021/05/20 02:22:15;;;;;;;0.70;0.60;;;8.10;99.90;;;8.77;100.00;-20920.75;5136702;27;20460;-80
2021/05/20 02:24:43;;;;;;;0.70;0.50;;;8.20;99.90;;;8.80;100.00;-20921.56;5118313;27;20460;-81
2021/05/20 02:27:10;;;;;;;0.70;0.60;;;8.20;99.90;;;8.82;100.00;-20922.13;5135294;27;20506;-79
2021/05/20 02:29:39;;;;;;;0.70;0.60;;;8.20;99.90;;;8.89;100.00;-20924.06;5135010;27;20447;-81
2021/05/20 02:32:07;;;;;;;0.70;0.60;;;8.30;99.90;;;8.98;100.00;-20926.56;5135881;27;20480;-79
2021/05/20 02:34:35;;;;;;;0.67;0.50;;;8.30;99.90;;;9.05;100.00;-20928.34;5137781;27;20417;-82
2021/05/20 02:37:03;;;;;;;0.60;0.50;;;8.40;99.90;;;9.12;100.00;-20930.44;5137771;27;20799;-79
2021/05/20 02:39:30;;;;;;;0.70;0.60;;;8.50;99.90;;;9.16;100.00;-20931.53;5136034;27;20462;-80
2021/05/20 02:41:58;;;;;;;0.70;0.60;;;8.50;99.90;;;9.17;100.00;-20931.81;5136988;27;20435;-80
2021/05/20 02:44:26;;;;;;;0.70;0.60;;;8.50;99.90;;;9.21;100.00;-20932.66;5136974;27;20976;-80
2021/05/20 02:46:55;;;;;;;0.70;0.60;;;8.60;99.90;;;9.21;100.00;-20932.66;5153347;27;20501;-80
2021/05/20 02:49:22;;;;;;;0.70;0.67;;;8.60;99.90;;;9.23;100.00;-20933.34;5138185;27;20418;-79
2021/05/20 02:51:50;;;;;;;0.70;0.60;;;8.60;99.90;;;9.28;100.00;-20934.72;5138064;27;20424;-80
2021/05/20 02:54:18;;;;;;;0.70;0.60;;;8.60;99.90;;;9.32;100.00;-20935.84;5119948;27;20521;-80
2021/05/20 02:56:45;;;;;;;0.70;0.60;;;8.70;99.90;;;9.32;100.00;-20935.84;5115490;28;20423;-80
2021/05/20 02:59:13;;;;;;;0.67;0.50;;;8.70;99.90;;;9.36;100.00;-20936.81;5116481;28;20845;-81
2021/05/20 03:01:43;;;;;;;0.70;0.60;;;8.70;99.90;;;9.40;100.00;-20937.91;5115260;28;20480;-81
2021/05/20 03:04:13;;;;;;;0.70;0.60;;;8.70;99.90;;;9.35;100.00;-20936.53;5115315;28;20959;-81
2021/05/20 03:06:41;;;;;;;0.70;0.60;;;8.70;99.90;;;9.32;100.00;-20935.84;5128732;28;20479;-81
2021/05/20 03:09:11;;;;;;;0.70;0.60;;;8.70;99.90;;;9.35;100.00;-20936.53;5134863;27;20458;-79
2021/05/20 03:11:38;;;;;;;0.70;0.60;;;8.70;99.90;;;9.38;100.00;-20937.38;5126671;27;20446;-79
2021/05/20 03:14:06;;;;;;;0.70;0.60;;;8.70;99.90;;;9.41;100.00;-20938.19;5119145;28;20453;-80
2021/05/20 03:16:33;;;;;;;0.70;0.60;;;8.70;99.90;;;9.46;100.00;-20939.56;5136340;28;20426;-80
2021/05/20 03:19:01;;;;;;;0.70;0.50;;;8.80;99.90;;;9.49;100.00;-20940.41;5116033;28;20449;-80
2021/05/20 03:21:30;;;;;;;0.70;0.60;;;8.80;99.90;;;9.50;100.00;-20940.53;5116314;28;20432;-80
2021/05/20 03:23:58;;;;;;;0.70;0.60;;;8.80;99.90;;;9.57;100.00;-20942.63;5117525;28;20810;-79
2021/05/20 03:26:25;;;;;;;0.70;0.60;;;8.80;99.90;;;9.50;100.00;-20940.69;5114259;28;20485;-80
2021/05/20 03:28:53;;;;;;;0.70;0.50;;;8.80;99.90;;;9.49;100.00;-20940.28;5122444;28;20508;-78
2021/05/20 03:31:22;;;;;;;0.70;0.60;;;8.80;99.90;;;9.54;100.00;-20941.66;5138293;28;20470;-80
2021/05/20 03:33:50;;;;;;;0.70;0.60;;;8.80;99.90;;;9.57;100.00;-20942.63;5135231;28;20481;-79
2021/05/20 03:36:18;;;;;;;0.70;0.60;;;8.80;99.90;;;9.52;100.00;-20941.09;5121437;27;20443;-80
2021/05/20 03:38:46;;;;;;;0.70;0.60;;;8.80;99.90;;;9.59;100.00;-20943.19;5126453;28;20450;-79
2021/05/20 03:41:13;;;;;;;0.70;0.60;;;8.80;99.90;;;9.55;100.00;-20941.94;5134716;28;20470;-80
2021/05/20 03:43:41;;;;;;;0.70;0.60;;;8.80;99.90;;;9.53;100.00;-20941.53;5116038;28;20443;-80
2021/05/20 03:46:28;;;;;;;0.70;0.60;;;8.70;99.90;;;9.44;100.00;-20939.03;5116206;28;20470;-79
2021/05/20 03:48:56;;;;;;;0.70;0.60;;;8.70;99.90;;;9.36;100.00;-20936.94;5116444;28;20466;-80
2021/05/20 03:51:23;;;;;;;0.70;0.60;;;8.70;99.90;;;9.24;100.00;-20933.47;5113954;28;20425;-80
2021/05/20 03:53:52;;;;;;;0.70;0.60;;;8.60;99.90;;;9.11;100.00;-20930.16;5115241;28;20546;-80
2021/05/20 03:56:19;;;;;;;0.70;0.60;;;8.50;99.90;;;9.06;100.00;-20928.78;5120919;28;21001;-80
2021/05/20 03:58:47;;;;;;;0.70;0.60;;;8.40;99.90;;;9.03;100.00;-20927.94;5134113;28;20436;-80
2021/05/20 04:01:15;;;;;;;0.70;0.60;;;8.40;99.90;;;9.06;100.00;-20928.63;5135014;28;20441;-80
2021/05/20 04:03:42;;;;;;;0.70;0.60;;;8.40;99.90;;;9.01;100.00;-20927.38;5133876;28;20429;-79
2021/05/20 04:06:10;;;;;;;0.70;0.67;;;8.40;99.90;;;9.00;100.00;-20926.97;5134726;28;20432;-80
2021/05/20 04:08:37;;;;;;;0.70;0.60;;;8.30;99.90;;;9.08;100.00;-20929.19;5133140;28;20464;-80
2021/05/20 04:11:06;;;;;;;0.70;0.60;;;8.40;99.90;;;9.21;100.00;-20932.78;5134852;27;20511;-80
2021/05/20 04:13:36;;;;;;;0.67;0.60;;;8.50;99.90;;;9.42;100.00;-20938.47;5125666;27;20443;-80
2021/05/20 04:16:06;;;;;;;0.70;0.70;;;8.60;99.90;;;9.77;100.00;-20948.03;5100613;28;20430;-80
2021/05/20 04:18:34;;;;;;;0.70;0.60;;;8.90;99.90;;;9.97;100.00;-20953.44;5103838;28;20476;-78
2021/05/20 04:21:03;;;;;;;0.70;0.60;;;9.10;99.90;;;10.10;100.00;-20957.03;5121410;27;20509;-79
2021/05/20 04:23:31;;;;;;;0.70;0.60;;;9.30;99.90;;;10.15;100.00;-20958.41;5136375;27;20481;-78
2021/05/20 04:25:59;;;;;;;0.70;0.60;;;9.30;99.90;;;10.29;100.00;-20962.00;5136869;27;20527;-78
2021/05/20 04:28:27;;;;;;;0.70;0.60;;;9.40;99.90;;;10.43;100.00;-20965.88;5138697;27;20447;-78
2021/05/20 04:30:55;;;;;;;0.70;0.70;;;9.40;99.90;;;10.47;100.00;-20966.84;5133012;27;20437;-79
2021/05/20 04:33:23;;;;;;;1.00;1.00;;;9.40;99.90;;;10.36;100.00;-20964.09;5140378;27;20517;-78
2021/05/20 04:35:51;;;;;;;0.70;0.60;;;9.50;99.90;;;10.41;100.00;-20965.34;5140935;27;20468;-78
2021/05/20 04:38:18;;;;;;;0.70;0.60;;;9.50;99.90;;;10.45;100.00;-20966.44;5137346;27;20460;-78
2021/05/20 04:40:46;;;;;;;0.80;0.80;;;9.50;99.90;;;10.46;100.00;-20966.72;5119522;27;20438;-78
2021/05/20 04:43:13;;;;;;;0.70;0.60;;;9.50;99.90;;;10.38;100.00;-20964.66;5139818;27;20418;-78
2021/05/20 04:45:44;;;;;;;0.70;0.60;;;9.50;99.90;;;10.47;100.00;-20967.00;5137146;27;20455;-78
2021/05/20 04:48:12;;;;;;;0.70;0.60;;;9.50;99.90;;;10.38;100.00;-20964.50;5137132;27;20456;-79
2021/05/20 04:50:40;;;;;;;0.70;0.60;;;9.50;99.90;;;10.35;100.00;-20963.69;5138704;27;20508;-78
2021/05/20 04:53:09;;;;;;;0.70;0.70;;;9.50;99.90;;;10.43;100.00;-20965.75;5121441;27;20464;-79
2021/05/20 04:55:38;;;;;;;0.70;0.60;;;9.60;99.90;;;10.52;100.00;-20968.38;5138466;27;20424;-79
2021/05/20 04:58:05;;;;;;;0.70;0.60;;;9.60;99.90;;;10.58;100.00;-20970.03;5118259;27;20424;-79
2021/05/20 05:00:33;;;;;;;0.70;0.60;;;9.60;99.90;;;10.77;100.00;-20975.03;5116966;27;20447;-79
2021/05/20 05:03:02;;;;;;;0.70;0.60;;;9.70;99.90;;;10.85;100.00;-20977.22;5132834;27;21156;-79
2021/05/20 05:05:29;;;;;;;0.70;0.60;;;9.60;99.90;;;10.70;100.00;-20973.09;5136671;27;20519;-78
2021/05/20 05:07:57;;;;;;;0.70;0.60;;;9.60;99.90;;;10.52;100.00;-20968.38;5114473;27;20845;-77
2021/05/20 05:10:25;;;;;;;0.70;0.60;;;9.60;99.90;;;10.51;100.00;-20968.09;5131961;27;20791;-80
2021/05/20 05:12:53;;;;;;;0.70;0.60;;;9.60;99.90;;;10.64;100.00;-20971.69;5128306;27;20482;-78
2021/05/20 05:15:21;;;;;;;0.70;0.60;;;9.60;99.90;;;10.63;100.00;-20971.41;5135086;27;20444;-80
2021/05/20 05:17:50;;;;;;;0.70;0.60;;;9.60;99.90;;;10.70;100.00;-20973.09;5117501;27;20442;-79
2021/05/20 05:20:20;;;;;;;1.53;1.27;;;9.70;99.90;;;10.87;100.00;-20977.78;5135922;27;20481;-79
2021/05/20 05:22:47;;;;;;;0.70;0.60;;;9.70;99.90;;;11.18;100.00;-20986.06;5134797;27;20977;-80
2021/05/20 05:25:15;;;;;;;0.70;0.60;;;9.70;99.90;;;11.30;100.00;-20989.41;5116043;27;20457;-78
2021/05/20 05:27:42;;;;;;;0.70;0.70;;;9.70;99.90;;;11.42;100.00;-20992.72;5135861;27;20450;-77
2021/05/20 05:30:16;;;;;;;0.70;0.60;;;9.90;99.90;;;11.08;100.00;-20983.59;5130919;27;20529;-80
2021/05/20 05:32:43;;;;;;;0.70;0.63;;;10.10;99.90;;;10.82;100.00;-20976.41;5116024;28;20406;-80
2021/05/20 05:35:12;;;;;;;0.70;0.60;;;10.00;99.90;;;10.81;100.00;-20976.13;5130350;27;21086;-80
2021/05/20 05:37:41;;;;;;;0.70;0.60;;;10.00;99.90;;;10.95;100.00;-20979.84;5135659;27;20413;-80
2021/05/20 05:40:09;;;;;;;0.70;0.57;;;9.80;99.90;;;10.90;100.00;-20978.63;5134847;27;20420;-80
2021/05/20 05:42:37;;;;;;;0.70;0.57;;;9.70;99.90;;;10.72;100.00;-20973.63;5116859;27;20440;-80
2021/05/20 05:45:06;;;;;;;0.70;0.60;;;9.70;99.90;;;10.74;100.00;-20974.31;5120781;27;20802;-80
2021/05/20 05:47:34;;;;;;;0.70;0.57;;;9.70;99.90;;;10.67;100.00;-20972.38;5112418;28;20792;-79
2021/05/20 05:50:09;;;;;;;0.70;0.60;;;9.70;99.90;;;10.76;100.00;-20974.75;5114338;27;20786;-79
2021/05/20 05:52:36;;;;;;;0.70;0.60;;;9.60;99.90;;;10.62;100.00;-20971.00;5117590;27;20428;-80
2021/05/20 05:55:07;;;;;;;0.70;0.60;;;9.60;99.90;;;10.59;100.00;-20970.31;5132109;27;20416;-79
2021/05/20 05:57:34;;;;;;;0.70;0.60;;;9.60;99.90;;;10.69;100.00;-20972.81;5133257;27;20412;-78
2021/05/20 06:00:05;;;;;;;0.70;0.60;;;9.70;99.90;;;10.42;100.00;-20965.47;5131860;27;20790;-81
2021/05/20 06:02:44;;;;;;;0.70;0.60;;;9.70;99.90;;;10.33;100.00;-20963.13;5127577;27;20785;-79
2021/05/20 06:05:12;;;;;;;0.70;0.50;;;9.70;99.90;;;10.51;100.00;-20968.09;5112258;28;20455;-78
2021/05/20 06:07:43;;;;;;;0.70;0.50;;;9.70;99.90;;;10.42;100.00;-20965.47;5130022;27;20998;-79
2021/05/20 06:10:13;;;;;;;0.70;0.60;;;9.80;99.90;;;10.45;100.00;-20966.44;5114190;27;20435;-79
2021/05/20 06:12:40;;;;;;;0.70;0.60;;;9.80;99.90;;;10.85;100.00;-20977.38;5112987;28;20428;-80
2021/05/20 06:15:10;;;;;;;0.70;0.60;;;9.90;99.90;;;11.08;100.00;-20983.59;5113640;28;20401;-79
2021/05/20 06:17:39;;;;;;;0.70;0.60;;;10.00;99.90;;;11.30;100.00;-20989.41;5113643;28;20505;-79
2021/05/20 06:20:08;;;;;;;0.70;0.60;;;10.10;99.90;;;11.30;100.00;-20989.41;5115178;27;20461;-78
2021/05/20 06:22:37;;;;;;;0.70;0.60;;;10.10;99.90;;;11.12;100.00;-20984.69;5114472;28;20957;-79
2021/05/20 06:25:05;;;;;;;0.70;0.60;;;10.20;99.90;;;11.04;100.00;-20982.47;5116475;27;20448;-78
2021/05/20 06:27:33;;;;;;;0.70;0.60;;;10.20;99.90;;;11.05;100.00;-20982.75;5130308;27;20467;-78
2021/05/20 06:30:02;;;;;;;0.70;0.60;;;10.30;99.90;;;11.31;100.00;-20989.69;5116073;27;20444;-79
2021/05/20 06:32:32;;;;;;;0.70;0.70;;;10.40;99.90;;;11.51;100.00;-20995.19;5133727;27;20423;-79
2021/05/20 06:35:00;;;;;;;0.70;0.60;;;10.30;99.90;;;11.65;100.00;-20998.94;5132971;27;20948;-79
2021/05/20 06:37:27;;;;;;;0.70;0.70;;;10.30;99.90;;;11.73;100.00;-21001.13;5134545;27;20433;-78
2021/05/20 06:39:55;;;;;;;0.70;0.60;;;10.30;99.90;;;11.71;100.00;-21000.44;5124426;27;20544;-78
2021/05/20 06:42:27;;;;;;;0.70;0.60;;;10.40;99.90;;;11.83;100.00;-21003.91;5117468;27;20495;-80
2021/05/20 06:44:56;;;;;;;0.80;0.70;;;10.40;99.90;;;11.73;100.00;-21001.00;5111292;28;20457;-80
2021/05/20 06:47:24;;;;;;;0.70;0.60;;;10.50;99.90;;;11.89;100.00;-21005.44;5115961;27;20477;-80
2021/05/20 06:49:52;;;;;;;0.70;0.70;;;10.50;99.90;;;12.09;100.00;-21010.94;5132735;27;20510;-80
2021/05/20 06:52:19;;;;;;;0.70;0.70;;;10.50;99.90;;;12.16;100.00;-21012.59;5134537;27;20414;-80
2021/05/20 06:54:48;;;;;;;0.70;0.60;;;10.50;99.90;;;12.27;100.00;-21015.66;5133760;27;20437;-79
2021/05/20 06:59:58;;;;;;;0.70;0.60;;;10.70;99.90;;;12.31;100.00;-21016.75;5113805;28;20431;-78
2021/05/20 07:02:29;;;;;;;0.70;0.70;;;10.80;99.90;;;12.46;100.00;-21020.75;5121183;27;20490;-79
2021/05/20 07:04:57;;;;;;;0.70;0.70;;;10.90;99.90;;;12.45;100.00;-21020.47;5121693;27;20533;-79
2021/05/20 07:07:25;;;;;;;0.70;0.70;;;10.90;99.90;;;12.34;100.00;-21017.56;5110160;28;20786;-79
2021/05/20 07:09:55;;;;;;;0.70;0.70;;;11.10;99.90;;;12.51;100.00;-21022.13;5113522;28;20452;-80
2021/05/20 07:12:23;;;;;;;0.70;0.60;;;11.20;99.90;;;12.51;100.00;-21022.25;5112264;28;20561;-81
2021/05/20 07:14:51;;;;;;;0.70;0.60;;;11.30;99.90;;;12.63;100.00;-21025.31;5112670;28;20492;-81
2021/05/20 07:17:20;;;;;;;0.70;0.60;;;11.20;99.90;;;12.28;100.00;-21015.91;5129126;28;20436;-81
2021/05/20 07:19:48;;;;;;;0.77;0.70;;;11.10;99.90;;;12.26;100.00;-21015.38;5127676;28;20842;-80
2021/05/20 07:22:15;;;;;;;0.90;0.90;;;11.10;99.90;;;12.41;100.00;-21019.50;5132337;28;20436;-79
2021/05/20 07:24:44;;;;;;;0.70;0.60;;;11.20;99.90;;;12.71;100.00;-21027.50;5134323;27;20445;-80
2021/05/20 07:27:12;;;;;;;0.70;0.60;;;11.30;99.90;;;12.35;100.00;-21017.84;5132638;28;20528;-79
2021/05/20 07:29:39;;;;;;;0.70;0.70;;;11.40;99.90;;;12.20;100.00;-21013.72;5128815;28;20464;-79
2021/05/20 07:32:09;;;;;;;0.73;0.63;;;11.50;99.90;;;12.60;100.00;-21024.47;5112010;28;20484;-78
2021/05/20 07:34:38;;;;;;;0.70;0.67;;;11.60;99.90;;;12.87;100.00;-21031.94;5112131;28;20860;-80
2021/05/20 07:37:07;;;;;;;0.70;0.70;;;11.90;99.90;;;13.52;100.00;-21049.56;5112197;28;20448;-80
2021/05/20 07:39:34;;;;;;;0.70;0.60;;;11.90;99.90;;;13.70;100.00;-21054.25;5129235;28;20464;-80
2021/05/20 07:42:02;;;;;;;0.70;0.60;;;11.90;99.90;;;13.62;100.00;-21052.06;5134185;28;20408;-80
2021/05/20 07:44:29;;;;;;;0.70;0.70;;;12.10;99.90;;;13.81;100.00;-21057.16;5133836;27;20518;-80
2021/05/20 07:46:57;;;;;;;0.70;0.60;;;12.00;99.90;;;14.00;100.00;-21062.53;5115389;27;20471;-78
2021/05/20 07:49:25;;;;;;;0.70;0.60;;;11.90;99.90;;;13.82;100.00;-21057.56;5116923;27;20798;-78
2021/05/20 07:51:54;;;;;;;0.70;0.60;;;11.80;99.90;;;13.53;100.00;-21049.84;5132962;27;20777;-80
2021/05/20 07:54:22;;;;;;;0.70;0.63;;;11.80;99.90;;;13.14;100.00;-21039.22;5126625;27;20562;-81
2021/05/20 07:56:51;;;;;;;0.70;0.60;;;11.90;99.90;;;13.48;100.00;-21048.34;5116915;28;20406;-80
2021/05/20 07:59:20;;;;;;;0.70;0.70;;;12.00;99.90;;;13.80;100.00;-21057.03;5099566;28;20944;-81
2021/05/20 08:02:10;;;;;;;0.70;0.67;;;12.20;99.90;;;14.13;100.00;-21065.84;5130375;27;20439;-77
2021/05/20 08:04:40;;;;;;;0.73;0.70;;;12.30;99.90;;;14.17;100.00;-21066.94;5138968;27;20451;-78
2021/05/20 08:08:16;;;;;;;0.70;0.60;;;12.40;99.90;;;14.59;100.00;-21078.22;5137001;27;20461;-80
2021/05/20 08:12:44;;;;;;;0.70;0.60;;;12.60;99.90;;;14.64;100.00;-21079.59;5137502;27;20840;-78
2021/05/20 08:15:12;;;;;;;0.70;0.60;;;12.80;99.90;;;14.78;100.00;-21083.47;5117243;27;20440;-78
2021/05/20 08:17:40;;;;;;;0.70;0.60;;;12.80;99.90;;;14.37;100.00;-21072.44;5137444;27;20752;-80
2021/05/20 08:20:11;;;;;;;0.80;0.70;;;12.80;99.90;;;14.47;100.00;-21075.19;5137361;27;20918;-78
2021/05/20 08:22:40;;;;;;;0.70;0.60;;;13.00;99.90;;;14.52;100.00;-21076.31;5130332;27;20481;-80
2021/05/20 08:25:10;;;;;;;0.70;0.70;;;13.40;99.90;;;14.27;100.00;-21069.69;5135703;27;20732;-80
2021/05/20 08:27:38;;;;;;;0.70;0.60;;;13.40;99.90;;;14.90;100.00;-21086.63;5135441;27;20870;-79
2021/05/20 08:30:09;;;;;;;0.70;0.60;;;13.30;99.90;;;15.12;100.00;-21092.53;5128021;27;20490;-77
2021/05/20 08:32:37;;;;;;;0.70;0.60;;;13.00;99.90;;;15.09;100.00;-21091.72;5115077;28;20469;-79
2021/05/20 08:35:07;;;;;;;0.70;0.60;;;12.90;99.90;;;15.59;100.00;-21105.31;5116652;28;20453;-77
2021/05/20 08:37:38;;;;;;;0.70;0.60;;;13.30;99.90;;;15.92;100.00;-21114.13;5117462;27;20401;-77
2021/05/20 08:40:09;;;;;;;0.70;0.50;;;13.50;99.90;;;15.61;100.00;-21105.88;5135952;27;20505;-78
2021/05/20 08:42:38;;;;;;;0.70;0.60;;;14.10;99.90;;;16.22;100.00;-21122.22;5133584;27;20442;-78
2021/05/20 08:45:16;;;;;;;0.70;0.60;;;14.50;99.90;;;16.44;100.00;-21128.13;5132068;27;20421;-79
2021/05/20 08:47:46;;;;;;;0.70;0.60;;;14.30;99.90;;;16.57;100.00;-21131.56;5132194;27;20928;-79
2021/05/20 08:50:18;;;;;;;0.70;0.70;;;14.60;99.90;;;16.82;100.00;-21138.44;5115466;27;20869;-78
2021/05/20 08:52:46;;;;;;;0.70;0.60;;;14.90;99.90;;;16.59;100.00;-21132.13;5098115;28;20465;-79
2021/05/20 08:55:18;;;;;;;0.70;0.63;;;15.20;99.90;;;17.43;100.00;-21154.63;5117250;27;20929;-78
2021/05/20 08:57:47;;;;;;;0.70;0.60;;;15.90;99.90;;;18.40;100.00;-21180.66;5128078;27;20489;-77
2021/05/20 09:00:18;;;;;;;0.70;0.60;;;15.90;99.90;;;17.23;100.00;-21149.41;5135803;27;20469;-78
2021/05/20 09:02:46;;;;;;;0.70;0.60;;;15.20;99.90;;;16.64;100.00;-21133.50;5131707;27;20385;-78
2021/05/20 09:05:17;;;;;;;0.80;0.70;;;14.60;99.90;;;17.66;100.00;-21160.94;5131650;27;20456;-77
2021/05/20 09:07:51;;;;;;;0.70;0.60;;;15.10;99.90;;;19.40;100.00;-21207.47;5117478;27;20527;-77
2021/05/20 09:10:22;;;;;;;0.70;0.60;;;15.70;99.90;;;19.55;100.00;-21211.59;5115415;28;20461;-77
2021/05/20 09:12:52;;;;;;;0.70;0.50;;;15.90;99.90;;;18.06;100.00;-21171.75;5121564;27;20413;-77
2021/05/20 09:15:27;;;;;;;0.77;0.60;;;15.80;99.90;;;17.63;100.00;-21160.09;5129801;27;20490;-76
2021/05/20 09:18:13;;;;;;;0.70;0.60;;;15.80;99.90;;;17.65;100.00;-21160.66;5136781;27;20375;-77
2021/05/20 09:20:44;;;;;;;0.70;0.60;;;14.80;99.90;;;16.90;100.00;-21140.63;5134832;27;20384;-77
2021/05/20 09:23:15;;;;;;;0.70;0.60;;;14.40;99.90;;;16.87;100.00;-21139.66;5117066;27;20821;-77
2021/05/20 09:25:46;;;;;;;0.70;0.60;;;14.40;99.90;;;16.81;100.00;-21138.16;5134173;27;20398;-76
2021/05/20 09:28:31;;;;;;;0.70;0.60;;;14.70;99.90;;;17.33;100.00;-21152.16;5136149;27;20399;-77
2021/05/20 09:30:59;;;;;;;0.70;0.60;;;15.30;99.90;;;18.31;100.00;-21178.47;5132815;27;20414;-77
2021/05/20 09:33:27;;;;;;;0.70;0.60;;;16.40;99.90;;;17.68;100.00;-21161.47;5134965;27;20489;-77
2021/05/20 09:35:55;;;;;;;0.70;0.60;;;16.00;99.90;;;17.01;100.00;-21143.38;5133489;27;20428;-77
2021/05/20 09:38:25;;;;;;;0.70;0.60;;;15.60;99.90;;;16.36;100.00;-21126.06;5129353;27;20465;-77
2021/05/20 09:40:58;;;;;;;0.80;0.70;;;15.30;99.90;;;18.27;100.00;-21177.38;5136000;27;20508;-76
2021/05/20 09:43:31;;;;;;;0.70;0.60;;;16.00;99.90;;;19.96;100.00;-21222.66;5137058;27;20432;-76
2021/05/20 09:46:02;;;;;;;0.70;0.60;;;17.10;99.90;;;20.22;100.00;-21229.63;5133765;27;20966;-76
2021/05/20 09:48:35;;;;;;;0.70;0.50;;;17.30;99.90;;;21.26;100.00;-21257.19;5129774;27;20436;-77
2021/05/20 09:51:05;;;;;;;0.70;0.57;;;18.40;99.90;;;21.09;100.00;-21252.84;5122535;27;20442;-77
2021/05/20 09:53:45;;;;;;;0.70;0.50;;;19.00;99.90;;;21.90;100.00;-21274.38;5114463;28;20433;-74
2021/05/20 09:56:30;;;;;;;0.70;0.50;;;19.30;99.90;;;21.66;100.00;-21268.13;5128866;27;20456;-77
2021/05/20 09:58:57;;;;;;;0.70;0.50;;;19.40;99.90;;;23.63;100.00;-21320.66;5133103;27;20447;-74
2021/05/20 10:01:25;;;;;;;0.70;0.50;;;19.40;99.90;;;23.99;100.00;-21330.03;5135395;27;20523;-76
2021/05/20 10:03:57;;;;;;;0.70;0.50;;;19.90;99.90;;;23.39;100.00;-21314.13;5134996;27;20523;-79
2021/05/20 10:06:38;;;;;;;0.70;0.50;;;20.20;98.40;;;23.45;100.00;-21315.75;5129063;27;20768;-80
2021/05/20 10:09:08;;;;;;;0.70;0.50;;;20.40;94.20;;;23.03;100.00;-21304.47;5126609;27;20464;-79
2021/05/20 10:11:38;;;;;;;0.70;0.40;;;20.80;88.20;;;22.10;100.00;-21279.81;5132805;27;20928;-74
2021/05/20 10:14:06;;;;;;;0.70;0.50;;;20.40;72.80;;;22.92;100.00;-21301.63;5133541;27;20424;-75
2021/05/20 10:16:38;;;;;;;0.70;0.50;;;19.70;69.30;;;22.63;100.00;-21294.00;5129414;27;20993;-77
2021/05/20 10:19:07;;;;;;;0.70;0.50;;;19.90;67.90;;;21.16;100.00;-21254.75;5131595;27;20443;-76
2021/05/20 10:21:35;;;;;;;0.70;0.50;;;18.30;67.60;;;19.64;100.00;-21214.06;5133230;27;20940;-77
2021/05/20 10:24:07;;;;;;;0.70;0.50;;;17.10;74.10;;;18.85;100.00;-21192.72;5134420;27;20455;-74
2021/05/20 10:26:39;;;;;;;0.70;0.50;;;16.70;82.60;;;19.91;100.00;-21221.28;5124564;27;20436;-76